Terminal Aerodrome Forecast
Issued by NWS Riverton, WY

Home | Current Version | Previous Version | Text Only | Print | Product List | Glossary On
Versions: 1 2 3 4 5 6 7 8 9 10 11 12
000
FTUS45 KRIW 201120
TAFRIW
TAF
KRIW 201120Z 2012/2112 30006KT P6SM FEW120
     FM201400 VRB05KT P6SM SCT250 WS020/24030KT
     FM201800 22017G25KT P6SM FEW250
     FM202000 22025G40KT P6SM FEW250
     FM202300 28025G35KT P6SM FEW120 SCT250
     FM210400 29015G25KT P6SM FEW120 SCT200=

USA.gov is the U.S. government's official web portal to all federal, state and local government web resources and services.